Time;durP1;ratioP1;P1;durP2;ratioP2;P2;SDS_P1;SDS_P2;PMS_P1;PMS_P2;Temp;Humidity;BMP_temperature;BMP_pressure;BME280_temperature;BME280_humidity;BME280_pressure;Samples;Min_cycle;Max_cycle;Signal;HPM_P1;HPM_P2
2024/02/05 00:01:19;;;;;;;2.37;1.83;;;10.00;47.10;;;;;;5011134;28;20228;-66
2024/02/05 00:03:45;;;;;;;1.90;1.77;;;10.10;47.00;;;;;;5014900;28;20671;-66
2024/02/05 00:06:12;;;;;;;2.33;2.20;;;10.10;47.10;;;;;;5016147;28;20300;-66
2024/02/05 00:08:39;;;;;;;2.57;1.90;;;10.10;46.60;;;;;;5014806;28;20266;-66
2024/02/05 00:11:06;;;;;;;3.37;1.93;;;10.20;46.80;;;;;;5008411;28;20239;-66
2024/02/05 00:13:33;;;;;;;3.93;2.00;;;10.20;46.90;;;;;;5014303;28;20238;-66
2024/02/05 00:15:59;;;;;;;1.60;1.50;;;10.10;46.50;;;;;;5011531;28;20221;-66
2024/02/05 00:18:26;;;;;;;1.80;1.70;;;10.20;46.20;;;;;;5014990;28;20557;-66
2024/02/05 00:20:52;;;;;;;1.63;1.53;;;10.30;46.10;;;;;;5012868;28;20668;-66
2024/02/05 00:23:19;;;;;;;2.60;2.00;;;10.30;45.70;;;;;;5014405;28;20267;-66
2024/02/05 00:25:46;;;;;;;2.17;1.87;;;10.30;45.90;;;;;;5015555;28;20208;-66
2024/02/05 00:28:12;;;;;;;3.07;2.07;;;10.30;45.50;;;;;;5001872;28;20220;-67
2024/02/05 00:30:39;;;;;;;2.30;2.00;;;10.20;45.50;;;;;;5014085;28;20209;-66
2024/02/05 00:33:06;;;;;;;2.10;1.90;;;10.20;45.40;;;;;;5013739;28;20595;-66
2024/02/05 00:35:33;;;;;;;2.30;2.10;;;10.30;45.10;;;;;;5014615;28;20314;-66
2024/02/05 00:37:59;;;;;;;2.30;2.00;;;10.30;44.80;;;;;;5014083;28;20232;-66
2024/02/05 00:40:26;;;;;;;2.33;2.13;;;10.30;44.80;;;;;;5006681;28;20703;-66
2024/02/05 00:42:52;;;;;;;3.67;1.90;;;10.30;44.80;;;;;;5006664;28;20232;-66
2024/02/05 00:45:19;;;;;;;2.40;2.20;;;10.30;44.80;;;;;;5006118;28;20217;-66
2024/02/05 00:47:45;;;;;;;2.27;1.90;;;10.30;44.80;;;;;;5009266;28;20205;-66
2024/02/05 00:50:12;;;;;;;3.00;1.90;;;10.30;44.80;;;;;;5009414;28;20715;-66
2024/02/05 00:52:39;;;;;;;3.57;2.13;;;10.30;44.70;;;;;;5007656;28;20247;-65
2024/02/05 00:55:05;;;;;;;2.83;2.27;;;10.20;44.70;;;;;;5012800;28;20227;-66
2024/02/05 00:57:32;;;;;;;2.70;1.83;;;10.20;44.70;;;;;;5010294;28;20296;-67
2024/02/05 00:59:59;;;;;;;3.90;2.00;;;10.30;44.70;;;;;;5011902;28;20249;-67
2024/02/05 01:02:25;;;;;;;2.90;2.30;;;10.30;44.10;;;;;;5012758;28;20233;-67
2024/02/05 01:04:52;;;;;;;3.33;2.50;;;10.30;44.10;;;;;;5006614;28;20235;-67
2024/02/05 01:07:19;;;;;;;4.43;1.90;;;10.30;44.00;;;;;;5008043;28;20205;-67
2024/02/05 01:09:45;;;;;;;2.00;1.90;;;10.30;44.80;;;;;;5015789;28;20583;-67
2024/02/05 01:12:12;;;;;;;3.00;2.20;;;10.30;44.20;;;;;;5013901;28;20334;-67
2024/02/05 01:14:39;;;;;;;3.27;2.30;;;10.30;44.30;;;;;;5009448;28;20259;-67
2024/02/05 01:17:05;;;;;;;2.73;2.00;;;10.30;44.10;;;;;;5009545;28;20205;-65
2024/02/05 01:19:32;;;;;;;3.83;2.00;;;10.20;44.40;;;;;;5013642;28;20584;-66
2024/02/05 01:21:58;;;;;;;4.90;2.43;;;10.30;43.80;;;;;;5013583;28;20378;-67
2024/02/05 01:24:25;;;;;;;3.43;2.13;;;10.30;44.10;;;;;;5007010;28;20283;-67
2024/02/05 01:26:52;;;;;;;2.63;2.33;;;10.30;43.80;;;;;;5012454;28;20746;-66
2024/02/05 01:29:18;;;;;;;3.30;2.10;;;10.30;43.90;;;;;;5012957;28;20209;-66
2024/02/05 01:31:45;;;;;;;2.87;2.27;;;10.30;43.90;;;;;;5013354;28;20278;-66
2024/02/05 01:34:12;;;;;;;2.87;2.40;;;10.30;43.80;;;;;;5011340;28;20212;-66
2024/02/05 01:36:38;;;;;;;5.47;2.40;;;10.30;43.70;;;;;;5009074;28;20314;-66
2024/02/05 01:39:06;;;;;;;3.33;2.40;;;10.30;43.90;;;;;;5012284;28;20208;-67
2024/02/05 01:41:33;;;;;;;3.57;2.40;;;10.30;44.10;;;;;;5001925;28;20280;-66
2024/02/05 01:44:00;;;;;;;3.77;2.30;;;10.30;43.80;;;;;;5010010;28;20255;-66
2024/02/05 01:46:26;;;;;;;3.50;2.37;;;10.30;43.90;;;;;;5011863;28;20228;-67
2024/02/05 01:48:53;;;;;;;4.77;2.80;;;10.30;44.10;;;;;;5013442;28;20211;-66
2024/02/05 01:51:19;;;;;;;3.80;2.20;;;10.30;44.10;;;;;;5013845;28;20275;-66
2024/02/05 01:53:46;;;;;;;3.60;2.30;;;10.30;44.20;;;;;;5012761;28;20270;-66
2024/02/05 01:56:12;;;;;;;3.87;2.40;;;10.30;44.30;;;;;;5007943;28;20379;-67
2024/02/05 01:58:39;;;;;;;2.70;2.40;;;10.30;44.20;;;;;;5010833;28;20200;-65
2024/02/05 02:01:06;;;;;;;4.20;2.83;;;10.30;44.40;;;;;;5006427;28;20787;-66
2024/02/05 02:03:32;;;;;;;4.03;2.80;;;10.30;44.20;;;;;;5002697;28;20218;-67
2024/02/05 02:05:59;;;;;;;3.10;2.53;;;10.40;44.20;;;;;;5009344;28;20207;-67
2024/02/05 02:08:25;;;;;;;4.70;2.40;;;10.30;44.10;;;;;;5009097;28;20209;-67
2024/02/05 02:10:52;;;;;;;5.07;2.80;;;10.30;44.30;;;;;;5008275;28;20357;-67
2024/02/05 02:13:19;;;;;;;3.67;2.57;;;10.40;44.40;;;;;;5010921;28;20209;-66
2024/02/05 02:15:45;;;;;;;3.57;2.60;;;10.40;44.90;;;;;;5005359;28;20257;-67
2024/02/05 02:18:12;;;;;;;3.97;2.77;;;10.30;44.80;;;;;;5005264;28;20202;-67
2024/02/05 02:20:38;;;;;;;6.23;3.00;;;10.30;44.80;;;;;;5010239;28;20243;-65
2024/02/05 02:23:05;;;;;;;6.30;3.00;;;10.20;44.70;;;;;;5010648;28;20228;-67
2024/02/05 02:25:31;;;;;;;3.83;3.03;;;10.20;44.70;;;;;;5008542;28;20206;-67
2024/02/05 02:27:58;;;;;;;6.83;3.17;;;10.20;44.70;;;;;;5004375;28;20288;-66
2024/02/05 02:30:25;;;;;;;4.50;2.90;;;10.20;44.70;;;;;;5008467;28;20404;-67
2024/02/05 02:32:51;;;;;;;4.60;2.70;;;10.10;45.50;;;;;;5008334;28;20227;-66
2024/02/05 02:35:18;;;;;;;4.07;3.00;;;10.20;45.10;;;;;;4998726;28;20287;-67
2024/02/05 02:37:44;;;;;;;4.73;3.20;;;10.20;44.90;;;;;;5011210;28;20266;-67
2024/02/05 02:40:11;;;;;;;6.17;3.67;;;10.10;45.00;;;;;;5012484;28;20471;-67
2024/02/05 02:42:40;;;;;;;4.07;2.97;;;10.10;45.50;;;;;;5003233;28;20232;-66
2024/02/05 02:45:06;;;;;;;6.77;3.27;;;10.10;45.00;;;;;;5010847;28;20212;-67
2024/02/05 02:47:33;;;;;;;6.53;3.20;;;10.10;45.70;;;;;;5010922;28;20222;-66
2024/02/05 02:49:59;;;;;;;5.30;3.20;;;10.10;45.10;;;;;;5012155;28;20284;-66
2024/02/05 02:52:26;;;;;;;6.17;3.20;;;10.00;45.20;;;;;;5009261;28;20294;-66
2024/02/05 02:54:52;;;;;;;5.13;3.03;;;10.00;45.10;;;;;;5008327;28;20296;-66
2024/02/05 02:57:19;;;;;;;7.43;3.40;;;10.10;44.80;;;;;;5011793;28;20213;-66
2024/02/05 02:59:46;;;;;;;5.93;3.43;;;10.00;44.70;;;;;;5006701;28;20230;-67
2024/02/05 03:02:12;;;;;;;4.77;2.90;;;10.10;44.70;;;;;;5019235;28;20437;-66
2024/02/05 03:04:39;;;;;;;5.93;3.60;;;10.00;44.80;;;;;;5016964;28;20201;-66
2024/02/05 03:07:05;;;;;;;7.73;3.40;;;10.00;45.10;;;;;;5011909;28;20212;-67
2024/02/05 03:09:32;;;;;;;5.23;3.50;;;10.00;44.80;;;;;;5012545;28;20208;-67
2024/02/05 03:11:58;;;;;;;9.50;3.70;;;10.00;44.70;;;;;;5003931;28;20652;-67
2024/02/05 03:14:25;;;;;;;7.37;3.33;;;10.00;44.80;;;;;;5006786;28;20247;-66
2024/02/05 03:16:52;;;;;;;7.17;3.93;;;10.00;45.20;;;;;;5010931;28;20238;-67
2024/02/05 03:19:19;;;;;;;7.43;3.50;;;10.00;44.70;;;;;;5000467;28;20271;-67
2024/02/05 03:21:45;;;;;;;7.80;4.30;;;9.90;46.00;;;;;;5011143;28;20233;-66
2024/02/05 03:24:12;;;;;;;7.40;3.90;;;9.90;46.00;;;;;;5011428;28;20243;-66
2024/02/05 03:26:38;;;;;;;7.50;3.70;;;10.00;45.40;;;;;;5011772;28;20274;-67
2024/02/05 03:29:05;;;;;;;6.27;4.27;;;9.90;46.30;;;;;;5004971;28;20270;-67
2024/02/05 03:31:31;;;;;;;6.40;3.50;;;9.90;46.30;;;;;;5011059;28;20232;-66
2024/02/05 03:33:58;;;;;;;7.97;3.83;;;9.90;46.30;;;;;;5011035;28;20296;-66
2024/02/05 03:36:25;;;;;;;4.83;3.33;;;9.80;46.50;;;;;;5005723;28;20287;-67
2024/02/05 03:38:51;;;;;;;6.10;3.73;;;9.80;46.90;;;;;;5010624;28;20204;-67
2024/02/05 03:41:18;;;;;;;10.20;3.80;;;9.70;47.30;;;;;;5009887;28;20645;-67
2024/02/05 03:43:44;;;;;;;7.43;3.20;;;9.70;47.20;;;;;;5006275;28;20829;-66
2024/02/05 03:46:11;;;;;;;7.80;3.70;;;9.80;47.60;;;;;;5001870;28;20687;-66
2024/02/05 03:48:38;;;;;;;6.53;3.97;;;9.70;47.40;;;;;;5006602;28;20246;-67
2024/02/05 03:51:04;;;;;;;6.23;3.20;;;9.70;47.80;;;;;;5002978;28;20231;-67
2024/02/05 03:53:31;;;;;;;5.53;3.80;;;9.60;48.30;;;;;;5005589;28;20223;-66
2024/02/05 03:55:57;;;;;;;5.70;4.00;;;9.60;48.40;;;;;;5010332;28;20370;-66
2024/02/05 03:58:24;;;;;;;5.23;3.77;;;9.60;48.60;;;;;;5004592;28;20214;-67
2024/02/05 04:00:50;;;;;;;4.63;3.60;;;9.50;48.80;;;;;;5010442;28;20212;-66
2024/02/05 04:03:17;;;;;;;5.57;3.80;;;9.50;48.80;;;;;;5007178;28;20236;-66
2024/02/05 04:05:43;;;;;;;4.87;3.63;;;9.40;49.00;;;;;;4993704;28;20273;-66
2024/02/05 04:08:10;;;;;;;6.27;3.40;;;9.40;49.30;;;;;;5006605;28;20210;-66
2024/02/05 04:10:37;;;;;;;6.37;3.77;;;9.40;49.50;;;;;;5004932;28;20779;-66
2024/02/05 04:13:03;;;;;;;6.30;3.93;;;9.30;49.40;;;;;;5001756;28;20744;-67
2024/02/05 04:15:30;;;;;;;6.37;3.60;;;9.30;49.40;;;;;;5010559;28;20294;-65
2024/02/05 04:17:56;;;;;;;7.40;3.60;;;9.20;49.30;;;;;;5010962;28;20211;-66
2024/02/05 04:20:23;;;;;;;5.17;4.03;;;9.30;49.40;;;;;;5012225;28;20683;-66
2024/02/05 04:22:50;;;;;;;7.57;3.73;;;9.30;49.40;;;;;;5013898;28;20289;-66
2024/02/05 04:25:15;;;;;;;4.93;3.73;;;9.30;49.40;;;;;;5014491;28;20297;-66
2024/02/05 04:27:42;;;;;;;3.97;3.20;;;9.30;49.40;;;;;;5014279;28;20525;-67
2024/02/05 04:30:09;;;;;;;5.63;3.40;;;9.30;49.40;;;;;;5008910;28;20705;-67
2024/02/05 04:32:35;;;;;;;5.60;3.27;;;9.20;49.30;;;;;;5013607;28;20232;-67
2024/02/05 04:35:02;;;;;;;5.07;3.00;;;9.20;49.40;;;;;;5014177;28;20207;-67
2024/02/05 04:37:28;;;;;;;6.33;2.67;;;9.20;49.40;;;;;;5014573;28;20705;-67
2024/02/05 04:39:55;;;;;;;5.80;3.27;;;9.20;49.30;;;;;;5015464;28;20258;-67
2024/02/05 04:42:21;;;;;;;5.70;2.83;;;9.10;49.70;;;;;;5006080;28;20239;-66
2024/02/05 04:44:48;;;;;;;7.10;3.10;;;9.20;49.30;;;;;;5007319;28;20216;-67
2024/02/05 04:47:14;;;;;;;4.33;2.60;;;9.10;49.80;;;;;;5008216;28;20249;-67
2024/02/05 04:49:41;;;;;;;4.17;2.83;;;9.10;49.90;;;;;;5013615;28;20297;-66
2024/02/05 04:52:07;;;;;;;3.77;2.07;;;9.10;50.60;;;;;;5013263;28;20239;-67
2024/02/05 04:54:34;;;;;;;3.47;2.50;;;9.10;50.50;;;;;;5013974;28;20218;-67
2024/02/05 04:57:01;;;;;;;4.10;2.47;;;9.00;51.00;;;;;;5005594;28;20242;-66
2024/02/05 04:59:27;;;;;;;2.87;2.53;;;8.90;50.80;;;;;;5014099;28;20650;-66
2024/02/05 05:01:54;;;;;;;2.97;2.20;;;8.90;50.90;;;;;;5012726;28;20705;-67
2024/02/05 05:04:22;;;;;;;6.57;3.10;;;8.90;50.90;;;;;;5005682;28;20198;-67
2024/02/05 05:06:48;;;;;;;4.70;2.90;;;8.90;51.00;;;;;;5009435;28;20208;-67
2024/02/05 05:09:15;;;;;;;2.63;2.37;;;8.80;51.00;;;;;;5011429;28;20211;-66
2024/02/05 05:11:41;;;;;;;3.53;2.70;;;8.70;51.30;;;;;;5014073;28;20285;-67
2024/02/05 05:14:08;;;;;;;3.80;2.77;;;8.70;51.30;;;;;;5013732;28;20207;-67
2024/02/05 05:16:34;;;;;;;3.00;2.57;;;8.80;51.50;;;;;;5013783;28;20285;-67
2024/02/05 05:19:01;;;;;;;2.70;2.40;;;8.70;51.70;;;;;;5013304;28;20270;-67
2024/02/05 05:21:28;;;;;;;4.00;2.37;;;8.70;52.30;;;;;;5013197;28;20227;-67
2024/02/05 05:23:55;;;;;;;2.63;2.40;;;8.60;52.20;;;;;;5012104;28;20250;-67
2024/02/05 05:26:23;;;;;;;3.07;2.30;;;8.60;52.30;;;;;;5003644;28;20670;-67
2024/02/05 05:28:50;;;;;;;3.80;2.63;;;8.50;52.40;;;;;;5007246;28;20241;-67
2024/02/05 05:31:16;;;;;;;3.50;2.40;;;8.50;52.40;;;;;;5011368;28;20766;-66
2024/02/05 05:33:43;;;;;;;3.33;2.40;;;8.50;52.40;;;;;;5010261;28;20218;-66
2024/02/05 05:36:10;;;;;;;5.43;2.60;;;8.50;52.50;;;;;;5006984;28;20223;-66
2024/02/05 05:38:36;;;;;;;2.57;2.17;;;8.40;52.70;;;;;;5013358;28;20203;-66
2024/02/05 05:41:04;;;;;;;3.00;2.50;;;8.30;52.90;;;;;;5013101;28;20273;-67
2024/02/05 05:43:30;;;;;;;2.97;2.77;;;8.30;53.10;;;;;;5006456;28;20221;-66
2024/02/05 05:45:57;;;;;;;3.07;2.60;;;8.40;52.90;;;;;;5004995;28;20204;-67
2024/02/05 05:48:23;;;;;;;3.40;2.40;;;8.50;52.60;;;;;;5009975;28;20663;-67
2024/02/05 05:50:50;;;;;;;3.47;2.53;;;8.30;53.10;;;;;;5012931;28;20211;-67
2024/02/05 05:53:16;;;;;;;2.43;2.23;;;8.20;53.40;;;;;;5005053;28;20532;-67
2024/02/05 05:55:43;;;;;;;5.30;2.70;;;8.20;53.60;;;;;;5009983;28;20211;-67
2024/02/05 05:58:09;;;;;;;3.50;2.60;;;8.30;53.50;;;;;;5005165;28;20214;-67
2024/02/05 06:00:36;;;;;;;3.07;2.53;;;8.10;53.80;;;;;;4998891;28;20210;-67
2024/02/05 06:03:03;;;;;;;6.30;2.60;;;8.20;53.60;;;;;;5012473;28;20227;-67
2024/02/05 06:05:30;;;;;;;4.23;2.50;;;8.10;54.00;;;;;;5009400;28;20622;-67
2024/02/05 06:07:57;;;;;;;2.60;2.40;;;8.10;54.20;;;;;;5012246;28;20215;-66
2024/02/05 06:10:23;;;;;;;3.20;3.00;;;8.10;54.00;;;;;;5013140;28;20284;-66
2024/02/05 06:12:50;;;;;;;4.77;2.87;;;8.10;54.10;;;;;;5006926;28;20272;-67
2024/02/05 06:15:17;;;;;;;3.23;2.43;;;8.00;54.40;;;;;;5012407;28;20238;-66
2024/02/05 06:17:43;;;;;;;3.73;2.60;;;8.00;54.70;;;;;;5012628;28;20328;-67
2024/02/05 06:20:10;;;;;;;2.47;2.27;;;8.10;54.80;;;;;;5012234;28;20873;-68
2024/02/05 06:22:36;;;;;;;2.60;2.40;;;8.10;54.70;;;;;;5012200;28;20313;-66
2024/02/05 06:25:03;;;;;;;2.73;2.53;;;8.10;54.80;;;;;;5011874;28;20257;-67
2024/02/05 06:27:29;;;;;;;3.47;2.60;;;8.10;54.90;;;;;;5012172;28;20725;-67
2024/02/05 06:29:56;;;;;;;2.53;2.20;;;8.00;55.20;;;;;;5005502;28;20220;-66
2024/02/05 06:32:23;;;;;;;3.97;2.40;;;8.00;55.40;;;;;;5007275;28;20751;-67
2024/02/05 06:34:50;;;;;;;5.70;2.47;;;7.90;55.50;;;;;;5007643;28;20254;-67
2024/02/05 06:37:17;;;;;;;3.97;2.90;;;7.80;55.90;;;;;;5001282;28;20231;-67
2024/02/05 06:39:43;;;;;;;2.40;2.07;;;7.90;55.90;;;;;;5007002;28;20207;-67
2024/02/05 06:42:10;;;;;;;2.53;2.33;;;7.80;56.20;;;;;;5009902;28;20713;-67
2024/02/05 06:44:37;;;;;;;3.53;2.30;;;7.80;56.50;;;;;;5011558;28;20267;-67
2024/02/05 06:47:04;;;;;;;2.70;2.27;;;7.80;56.50;;;;;;5001268;28;20210;-66
2024/02/05 06:49:30;;;;;;;6.20;2.60;;;7.80;56.60;;;;;;5011236;28;20214;-67
2024/02/05 06:51:57;;;;;;;3.43;2.80;;;7.80;56.30;;;;;;5010059;28;20659;-67
2024/02/05 06:54:23;;;;;;;3.60;2.30;;;7.80;56.10;;;;;;5008501;28;20236;-67
2024/02/05 06:56:50;;;;;;;2.70;2.40;;;7.60;56.90;;;;;;5005132;28;20313;-66
2024/02/05 06:59:16;;;;;;;3.60;2.80;;;7.70;56.30;;;;;;5007090;28;20211;-67
2024/02/05 07:01:43;;;;;;;4.30;2.30;;;7.70;56.20;;;;;;5005203;28;20284;-67
2024/02/05 07:04:10;;;;;;;3.97;2.50;;;7.60;56.90;;;;;;5011822;28;20206;-67
2024/02/05 07:06:37;;;;;;;2.53;2.20;;;7.60;56.80;;;;;;5005089;28;20210;-67
2024/02/05 07:09:04;;;;;;;3.40;2.30;;;7.60;56.90;;;;;;5003974;28;20572;-67
2024/02/05 07:11:30;;;;;;;2.50;2.30;;;7.50;56.80;;;;;;4998840;28;20230;-67
2024/02/05 07:13:57;;;;;;;3.60;2.93;;;7.60;56.80;;;;;;4996600;28;20210;-68
2024/02/05 07:16:23;;;;;;;4.30;2.70;;;7.70;56.30;;;;;;5003978;28;20222;-68
2024/02/05 07:18:50;;;;;;;2.80;2.50;;;7.70;56.20;;;;;;4997575;28;20263;-67
2024/02/05 07:21:17;;;;;;;2.77;2.20;;;7.70;56.10;;;;;;5002321;28;20314;-66
2024/02/05 07:23:44;;;;;;;2.77;2.33;;;7.60;56.20;;;;;;5002282;28;20257;-66
2024/02/05 07:26:10;;;;;;;4.23;2.40;;;7.80;55.80;;;;;;5000344;28;20211;-66
2024/02/05 07:28:37;;;;;;;2.53;2.33;;;7.60;56.80;;;;;;4996837;28;20206;-67
2024/02/05 07:31:04;;;;;;;2.10;2.00;;;7.70;56.30;;;;;;4994077;28;20255;-69
2024/02/05 07:33:30;;;;;;;2.80;2.50;;;7.80;55.70;;;;;;5005242;28;20210;-68
2024/02/05 07:35:58;;;;;;;2.43;2.33;;;7.80;55.70;;;;;;4999260;28;20203;-68
2024/02/05 07:38:25;;;;;;;2.30;2.10;;;7.80;55.80;;;;;;5005924;28;20235;-67
2024/02/05 07:40:51;;;;;;;3.07;2.40;;;8.00;55.60;;;;;;5007071;28;20200;-68
2024/02/05 07:43:18;;;;;;;2.23;2.07;;;8.10;55.40;;;;;;5004966;28;20215;-68
2024/02/05 07:45:44;;;;;;;2.43;2.23;;;8.10;55.50;;;;;;5003757;28;20207;-67
2024/02/05 07:48:11;;;;;;;2.47;2.13;;;8.10;55.50;;;;;;5006805;28;20198;-68
2024/02/05 07:50:37;;;;;;;4.70;2.60;;;8.10;55.70;;;;;;4992741;28;20270;-68
2024/02/05 07:53:04;;;;;;;3.47;2.60;;;7.90;56.20;;;;;;5004453;28;20284;-67
2024/02/05 07:55:31;;;;;;;3.03;2.83;;;8.00;55.80;;;;;;5004750;28;20249;-68
2024/02/05 07:57:57;;;;;;;2.90;2.17;;;8.10;55.90;;;;;;5005661;28;20239;-68
2024/02/05 08:00:24;;;;;;;3.20;2.60;;;8.10;55.80;;;;;;5003105;28;20268;-68
2024/02/05 08:02:51;;;;;;;2.67;2.47;;;7.90;56.00;;;;;;4998077;28;20785;-68
2024/02/05 08:05:18;;;;;;;3.07;2.53;;;7.80;56.60;;;;;;5014386;28;20206;-67
2024/02/05 08:07:45;;;;;;;3.50;2.50;;;7.90;56.60;;;;;;4999109;28;20211;-67
2024/02/05 08:10:11;;;;;;;3.03;2.70;;;7.80;57.00;;;;;;5006105;28;20257;-71
2024/02/05 08:12:39;;;;;;;2.90;2.60;;;7.90;57.10;;;;;;5007520;28;20284;-66
2024/02/05 08:15:05;;;;;;;3.30;2.80;;;8.10;58.80;;;;;;5003641;28;20237;-66
2024/02/05 08:17:32;;;;;;;4.33;3.73;;;8.30;57.10;;;;;;5009221;28;20303;-66
2024/02/05 08:19:58;;;;;;;4.07;2.93;;;8.10;56.60;;;;;;5012175;28;20217;-67
2024/02/05 08:22:28;;;;;;;2.90;2.50;;;8.20;56.40;;;;;;5015077;28;20277;-67
2024/02/05 08:24:54;;;;;;;3.47;2.57;;;8.20;56.40;;;;;;5011033;28;20207;-67
2024/02/05 08:27:21;;;;;;;2.97;2.77;;;8.10;56.50;;;;;;5001882;28;20211;-66
2024/02/05 08:29:47;;;;;;;2.60;2.40;;;8.10;56.40;;;;;;5009704;28;20350;-67
2024/02/05 08:32:14;;;;;;;3.90;3.37;;;8.10;56.40;;;;;;5007957;28;20226;-66
2024/02/05 08:34:40;;;;;;;3.73;2.67;;;8.00;56.90;;;;;;5003839;28;20206;-66
2024/02/05 08:37:07;;;;;;;3.73;3.10;;;8.10;56.50;;;;;;4998292;28;20227;-66
2024/02/05 08:39:33;;;;;;;3.27;2.70;;;8.20;56.10;;;;;;4994941;28;20696;-66
2024/02/05 08:42:00;;;;;;;2.87;2.60;;;8.20;56.10;;;;;;5018969;28;20292;-67
2024/02/05 08:44:27;;;;;;;2.83;2.63;;;8.20;56.10;;;;;;5021183;28;20207;-70
2024/02/05 08:46:53;;;;;;;4.87;2.70;;;8.30;56.00;;;;;;5014586;28;20207;-67
2024/02/05 08:49:20;;;;;;;2.77;2.47;;;8.20;56.10;;;;;;5023397;28;20202;-67
2024/02/05 08:51:46;;;;;;;4.43;2.93;;;8.30;55.60;;;;;;5024082;28;20234;-68
2024/02/05 08:54:13;;;;;;;3.40;2.87;;;8.50;55.10;;;;;;5022294;28;20199;-67
2024/02/05 08:56:40;;;;;;;3.97;3.00;;;8.60;54.80;;;;;;5017534;28;20203;-67
2024/02/05 08:59:07;;;;;;;2.97;2.77;;;8.80;54.10;;;;;;5016876;28;20576;-67
2024/02/05 09:01:33;;;;;;;3.30;2.53;;;9.10;53.70;;;;;;5028512;28;20228;-68
2024/02/05 09:04:00;;;;;;;2.60;2.40;;;9.40;52.40;;;;;;5022115;28;20670;-67
2024/02/05 09:06:27;;;;;;;2.77;2.57;;;9.70;51.70;;;;;;5021335;28;20213;-68
2024/02/05 09:08:54;;;;;;;3.57;2.63;;;10.20;49.60;;;;;;5016834;28;20642;-68
2024/02/05 09:11:20;;;;;;;3.53;2.30;;;10.10;48.70;;;;;;5020254;28;20229;-69
2024/02/05 09:13:47;;;;;;;2.67;2.40;;;10.20;48.20;;;;;;5017383;28;20213;-69
2024/02/05 09:16:13;;;;;;;4.70;2.50;;;10.30;47.40;;;;;;5017893;28;20288;-69
2024/02/05 09:18:40;;;;;;;3.73;2.60;;;10.30;47.00;;;;;;5016213;28;20226;-69
2024/02/05 09:21:06;;;;;;;3.57;2.30;;;10.30;46.80;;;;;;5015748;28;20795;-68
2024/02/05 09:23:35;;;;;;;3.73;2.90;;;10.50;46.40;;;;;;5021516;28;20210;-68
2024/02/05 09:26:01;;;;;;;3.50;2.40;;;10.60;45.80;;;;;;5020914;28;20573;-68
2024/02/05 09:28:28;;;;;;;3.20;2.40;;;10.70;45.40;;;;;;5025004;28;20256;-66
2024/02/05 09:30:55;;;;;;;6.03;2.80;;;10.60;45.00;;;;;;5024264;28;20199;-66
2024/02/05 09:33:21;;;;;;;4.60;2.00;;;10.80;45.20;;;;;;5017740;28;20218;-69
2024/02/05 09:35:48;;;;;;;6.73;3.40;;;11.10;44.30;;;;;;5024887;28;20623;-69
2024/02/05 09:38:15;;;;;;;4.83;2.63;;;11.40;42.90;;;;;;5013809;28;20228;-66
2024/02/05 09:40:41;;;;;;;5.57;2.40;;;11.50;42.50;;;;;;5021346;28;20213;-69
2024/02/05 09:43:08;;;;;;;6.20;2.83;;;11.70;42.10;;;;;;5015100;28;20262;-69
2024/02/05 09:45:35;;;;;;;8.60;2.57;;;11.70;40.70;;;;;;5016280;28;20241;-68
2024/02/05 09:48:01;;;;;;;6.07;2.83;;;11.90;40.70;;;;;;5020221;28;20265;-66
2024/02/05 09:50:28;;;;;;;7.67;2.63;;;12.30;39.70;;;;;;5024769;28;20304;-66
2024/02/05 09:52:55;;;;;;;6.07;2.70;;;12.00;39.80;;;;;;5012801;28;20325;-69
2024/02/05 09:55:21;;;;;;;4.87;3.40;;;12.20;39.50;;;;;;5009910;28;20216;-68
2024/02/05 09:57:48;;;;;;;5.47;3.30;;;12.30;39.40;;;;;;5019698;28;20272;-66
2024/02/05 10:00:14;;;;;;;7.17;3.40;;;12.50;38.90;;;;;;5023988;28;20211;-68
2024/02/05 10:02:41;;;;;;;4.53;2.63;;;12.80;37.70;;;;;;5018448;28;20289;-68
2024/02/05 10:05:09;;;;;;;8.50;3.07;;;12.80;37.80;;;;;;5021337;28;20298;-68
2024/02/05 10:07:36;;;;;;;6.93;3.00;;;12.90;37.80;;;;;;5012961;28;20211;-68
2024/02/05 10:10:03;;;;;;;6.53;3.30;;;13.10;37.50;;;;;;5020837;28;20667;-67
2024/02/05 10:12:29;;;;;;;7.13;3.73;;;13.30;37.40;;;;;;5012650;28;20231;-68
2024/02/05 10:14:56;;;;;;;9.03;3.50;;;13.20;36.90;;;;;;5010727;28;20282;-68
2024/02/05 10:17:23;;;;;;;6.60;3.10;;;13.10;37.60;;;;;;5021139;28;20234;-68
2024/02/05 10:19:49;;;;;;;8.07;3.93;;;13.00;36.60;;;;;;5023786;28;20210;-68
2024/02/05 10:22:16;;;;;;;7.60;3.00;;;13.20;37.30;;;;;;5014246;28;20292;-68
2024/02/05 10:24:43;;;;;;;7.87;3.40;;;13.20;36.00;;;;;;5015419;28;20214;-69
2024/02/05 10:27:09;;;;;;;10.30;3.47;;;13.30;36.30;;;;;;5025952;28;20621;-68
2024/02/05 10:29:38;;;;;;;8.97;3.30;;;13.20;35.90;;;;;;5032286;28;20223;-68
2024/02/05 10:32:04;;;;;;;11.23;3.40;;;13.40;35.80;;;;;;5028035;28;20224;-68
2024/02/05 10:34:31;;;;;;;6.33;3.30;;;13.60;35.90;;;;;;5022458;28;20227;-68
2024/02/05 10:36:57;;;;;;;5.80;3.30;;;13.80;35.30;;;;;;5012581;28;20592;-68
2024/02/05 10:39:24;;;;;;;8.50;3.50;;;14.00;35.60;;;;;;5018770;28;20217;-68
2024/02/05 10:41:50;;;;;;;7.57;3.50;;;13.90;34.50;;;;;;5019158;28;20312;-67
2024/02/05 10:44:17;;;;;;;7.10;3.43;;;13.80;34.50;;;;;;5025849;28;20214;-67
2024/02/05 10:46:45;;;;;;;6.30;2.90;;;14.10;34.20;;;;;;5018665;28;20211;-68
2024/02/05 10:49:12;;;;;;;8.33;2.87;;;14.30;34.00;;;;;;5026663;28;20261;-67
2024/02/05 10:51:39;;;;;;;4.70;2.90;;;14.50;34.00;;;;;;5020315;28;20662;-68
2024/02/05 10:54:05;;;;;;;8.20;3.20;;;14.70;33.40;;;;;;5022034;28;20237;-69
2024/02/05 10:56:32;;;;;;;8.97;3.80;;;15.20;34.30;;;;;;5016107;28;20234;-68
2024/02/05 10:59:03;;;;;;;6.43;3.23;;;14.90;34.80;;;;;;5020565;28;20227;-70
2024/02/05 11:01:30;;;;;;;8.87;3.67;;;15.30;35.00;;;;;;5018287;28;20394;-69
2024/02/05 11:03:56;;;;;;;6.83;3.13;;;15.10;35.00;;;;;;5020269;28;20215;-67
2024/02/05 11:06:23;;;;;;;7.37;3.27;;;15.20;34.60;;;;;;5023510;28;20209;-65
2024/02/05 11:08:49;;;;;;;15.13;5.20;;;15.20;33.50;;;;;;5018108;28;20289;-65
2024/02/05 11:11:16;;;;;;;5.70;2.97;;;15.00;33.00;;;;;;5022403;28;20780;-65
2024/02/05 11:13:42;;;;;;;9.40;3.27;;;14.90;33.50;;;;;;5021587;28;20202;-64
2024/02/05 11:16:09;;;;;;;21.00;6.37;;;15.20;34.60;;;;;;5013920;28;20202;-65
2024/02/05 11:18:35;;;;;;;7.20;3.47;;;15.40;33.70;;;;;;5018103;28;20294;-68
2024/02/05 11:21:02;;;;;;;8.17;2.93;;;15.50;32.40;;;;;;5021390;28;20616;-68
2024/02/05 11:23:29;;;;;;;6.23;3.10;;;15.70;33.40;;;;;;5014816;28;20581;-65
2024/02/05 11:25:55;;;;;;;8.07;2.73;;;15.80;30.70;;;;;;5011054;28;20211;-66
2024/02/05 11:28:23;;;;;;;6.13;2.97;;;16.50;29.40;;;;;;5018196;28;20291;-66
2024/02/05 11:30:50;;;;;;;7.40;3.22;;;17.80;27.60;;;;;;5018649;28;20215;-66
2024/02/05 11:33:16;;;;;;;7.72;3.45;;;19.10;25.60;;;;;;5022091;28;20665;-66
2024/02/05 11:35:43;;;;;;;7.15;2.70;;;20.00;25.20;;;;;;5023191;28;20206;-66
2024/02/05 11:38:09;;;;;;;7.13;3.15;;;20.60;25.40;;;;;;5014729;28;20218;-66
2024/02/05 11:40:36;;;;;;;5.13;2.33;;;21.00;25.00;;;;;;5005161;28;20614;-66
2024/02/05 11:43:03;;;;;;;6.45;2.88;;;20.80;25.20;;;;;;5009126;28;20309;-66
2024/02/05 11:45:29;;;;;;;5.88;2.55;;;19.70;25.80;;;;;;5016515;28;20210;-66
2024/02/05 11:47:57;;;;;;;6.80;2.95;;;18.90;26.40;;;;;;5010124;28;20203;-66
2024/02/05 11:50:23;;;;;;;5.97;2.22;;;18.40;27.10;;;;;;5010987;28;20289;-66
2024/02/05 11:52:50;;;;;;;7.55;2.80;;;18.30;27.30;;;;;;5015264;28;25451;-66
2024/02/05 11:55:17;;;;;;;6.13;2.75;;;18.20;27.40;;;;;;5020104;28;20923;-66
2024/02/05 11:57:44;;;;;;;5.25;2.90;;;18.40;27.00;;;;;;5021819;28;20638;-66
2024/02/05 12:00:11;;;;;;;8.70;2.78;;;18.20;27.30;;;;;;5014715;28;20209;-66
2024/02/05 12:02:37;;;;;;;6.18;2.67;;;18.50;26.90;;;;;;5017181;28;20319;-65
2024/02/05 12:05:04;;;;;;;4.30;2.42;;;18.80;26.90;;;;;;5013255;28;20207;-66
2024/02/05 12:07:30;;;;;;;4.95;2.67;;;18.00;26.80;;;;;;5019969;28;20207;-66
2024/02/05 12:09:57;;;;;;;10.13;3.10;;;17.80;27.30;;;;;;5012747;28;20300;-66
2024/02/05 12:12:24;;;;;;;6.03;2.50;;;17.80;27.30;;;;;;5021177;28;20227;-66
2024/02/05 12:14:50;;;;;;;5.97;3.03;;;18.00;27.30;;;;;;5016132;28;20696;-66
2024/02/05 12:17:17;;;;;;;4.65;2.75;;;18.00;27.20;;;;;;5019597;28;20226;-66
2024/02/05 12:19:43;;;;;;;6.65;2.33;;;17.30;28.10;;;;;;5008420;28;20235;-66
2024/02/05 12:22:10;;;;;;;6.13;2.33;;;17.00;27.80;;;;;;5020584;28;20227;-65
2024/02/05 12:24:37;;;;;;;4.82;2.60;;;16.80;28.50;;;;;;5019496;28;20261;-67
2024/02/05 12:27:04;;;;;;;5.40;2.10;;;16.80;28.30;;;;;;5015495;28;20230;-65
2024/02/05 12:29:30;;;;;;;4.93;2.78;;;16.80;28.60;;;;;;5021815;28;20230;-66
2024/02/05 12:31:57;;;;;;;6.63;2.53;;;17.40;28.00;;;;;;5015528;28;20235;-66
2024/02/05 12:34:23;;;;;;;6.68;3.20;;;17.30;28.00;;;;;;5024590;28;20213;-65
2024/02/05 12:36:50;;;;;;;4.07;2.58;;;17.20;27.90;;;;;;5016367;28;20237;-64
2024/02/05 12:39:16;;;;;;;9.90;2.95;;;16.90;28.20;;;;;;5019804;28;20285;-65
2024/02/05 12:41:44;;;;;;;5.40;2.95;;;17.30;28.00;;;;;;5014992;28;20273;-65
2024/02/05 12:44:11;;;;;;;6.88;2.97;;;17.30;28.00;;;;;;5017284;28;20648;-65
2024/02/05 12:46:37;;;;;;;6.95;3.20;;;17.40;27.90;;;;;;5030654;28;20218;-66